Time;durP1;ratioP1;P1;durP2;ratioP2;P2;SDS_P1;SDS_P2;PMS_P1;PMS_P2;Temp;Humidity;BMP_temperature;BMP_pressure;BME280_temperature;BME280_humidity;BME280_pressure;Samples;Min_cycle;Max_cycle;Signal;HPM_P1;HPM_P2
2023/01/14 00:01:28;;;;;;;19.33;12.02;;;10.10;99.90;;;;;;5066818;28;20041;-72
2023/01/14 00:03:57;;;;;;;14.20;9.27;;;10.10;99.90;;;;;;5059898;28;20044;-73
2023/01/14 00:06:30;;;;;;;15.95;10.80;;;10.10;99.90;;;;;;5066995;28;20055;-72
2023/01/14 00:09:00;;;;;;;16.42;10.43;;;10.10;99.90;;;;;;5069489;28;20075;-72
2023/01/14 00:11:46;;;;;;;17.55;11.70;;;10.10;99.90;;;;;;5065434;28;20441;-72
2023/01/14 00:14:18;;;;;;;17.77;12.70;;;10.10;99.90;;;;;;5067244;28;20059;-72
2023/01/14 00:16:46;;;;;;;23.65;12.70;;;10.10;99.90;;;;;;5068079;28;20295;-72
2023/01/14 00:19:14;;;;;;;35.38;19.50;;;10.10;99.90;;;;;;5069272;28;20053;-72
2023/01/14 00:21:43;;;;;;;24.42;13.95;;;10.10;99.90;;;;;;5069283;28;20139;-72
2023/01/14 00:24:12;;;;;;;19.92;14.20;;;10.20;99.90;;;;;;5070315;28;20092;-72
2023/01/14 00:26:41;;;;;;;21.40;15.85;;;10.20;99.90;;;;;;5069423;28;20044;-72
2023/01/14 00:29:16;;;;;;;28.08;17.35;;;10.20;99.90;;;;;;5068613;28;20416;-72
2023/01/14 00:31:44;;;;;;;24.35;14.98;;;10.20;99.90;;;;;;5066602;28;20033;-73
2023/01/14 00:34:14;;;;;;;17.60;12.50;;;10.20;99.90;;;;;;5052326;28;20578;-72
2023/01/14 00:36:44;;;;;;;15.85;10.98;;;10.20;99.90;;;;;;5061493;28;20057;-72
2023/01/14 00:39:13;;;;;;;16.80;11.00;;;10.20;99.90;;;;;;5065812;28;20083;-72
2023/01/14 00:41:40;;;;;;;13.63;9.27;;;10.30;99.90;;;;;;5061547;28;20564;-73
2023/01/14 00:44:08;;;;;;;14.23;9.02;;;10.30;99.90;;;;;;5065866;28;20050;-73
2023/01/14 00:46:39;;;;;;;16.75;9.75;;;10.30;99.90;;;;;;5063065;28;20129;-74
2023/01/14 00:49:16;;;;;;;13.25;8.70;;;10.30;99.90;;;;;;5054803;28;20041;-72
2023/01/14 00:51:46;;;;;;;14.77;10.10;;;10.30;99.90;;;;;;5053746;28;20045;-73
2023/01/14 00:54:14;;;;;;;12.32;8.98;;;10.30;99.90;;;;;;5071344;28;20129;-73
2023/01/14 00:56:42;;;;;;;11.88;8.60;;;10.40;99.90;;;;;;5071329;28;20036;-73
2023/01/14 00:59:21;;;;;;;12.55;9.52;;;10.40;99.90;;;;;;5071140;28;20040;-73
2023/01/14 01:01:51;;;;;;;16.08;9.52;;;10.40;99.90;;;;;;5036462;28;20131;-73
2023/01/14 01:04:19;;;;;;;11.80;7.72;;;10.40;99.90;;;;;;5053373;28;20052;-73
2023/01/14 01:06:46;;;;;;;11.88;7.55;;;10.40;99.90;;;;;;5069912;28;20083;-73
2023/01/14 01:09:14;;;;;;;10.32;6.47;;;10.40;99.90;;;;;;5069104;28;20485;-72
2023/01/14 01:11:41;;;;;;;11.77;7.03;;;10.40;99.90;;;;;;5070858;28;20539;-73
2023/01/14 01:14:09;;;;;;;13.48;7.32;;;10.30;99.90;;;;;;5069423;28;20125;-73
2023/01/14 01:16:37;;;;;;;11.90;7.78;;;10.30;99.90;;;;;;5069382;28;20067;-73
2023/01/14 01:19:06;;;;;;;14.48;7.88;;;10.30;99.90;;;;;;5069324;28;20048;-73
2023/01/14 01:21:33;;;;;;;9.43;7.18;;;10.40;99.90;;;;;;5070601;28;20048;-72
2023/01/14 01:24:01;;;;;;;11.60;7.05;;;10.30;99.90;;;;;;5052522;28;20789;-73
2023/01/14 01:26:28;;;;;;;15.23;7.15;;;10.30;99.90;;;;;;5052769;28;20059;-73
2023/01/14 01:28:57;;;;;;;11.77;7.43;;;10.30;99.90;;;;;;5068526;28;20072;-73
2023/01/14 01:31:27;;;;;;;11.98;7.30;;;10.30;99.90;;;;;;5069492;28;20696;-73
2023/01/14 01:33:56;;;;;;;9.70;7.13;;;10.30;99.90;;;;;;5069148;28;20133;-73
2023/01/14 01:36:26;;;;;;;9.20;7.35;;;10.30;99.90;;;;;;5035699;28;20106;-72
2023/01/14 01:38:54;;;;;;;10.93;7.82;;;10.20;99.90;;;;;;5067769;28;20387;-73
2023/01/14 01:41:24;;;;;;;12.68;8.27;;;10.20;99.90;;;;;;5069261;28;20505;-73
2023/01/14 01:44:02;;;;;;;11.07;7.90;;;10.30;99.90;;;;;;5068635;28;20106;-73
2023/01/14 01:46:31;;;;;;;11.60;7.53;;;10.30;99.90;;;;;;5068998;28;20127;-73
2023/01/14 01:49:25;;;;;;;8.60;6.10;;;10.30;99.90;;;;;;5068955;28;20036;-73
2023/01/14 01:51:58;;;;;;;11.77;7.35;;;10.20;99.90;;;;;;5067834;28;20052;-73
2023/01/14 01:54:33;;;;;;;13.02;7.63;;;10.10;99.90;;;;;;5069125;28;20045;-72
2023/01/14 01:57:05;;;;;;;11.10;7.55;;;10.10;99.90;;;;;;5036087;28;20469;-73
2023/01/14 01:59:37;;;;;;;9.98;8.10;;;10.00;99.90;;;;;;5069991;28;20037;-73
2023/01/14 02:02:05;;;;;;;10.35;8.32;;;10.00;99.90;;;;;;5052062;28;20043;-73
2023/01/14 02:04:33;;;;;;;11.65;9.27;;;10.00;99.90;;;;;;5032221;28;20073;-73
2023/01/14 02:07:16;;;;;;;10.13;7.60;;;10.10;99.90;;;;;;5065439;28;20090;-73
2023/01/14 02:09:44;;;;;;;13.90;7.63;;;10.00;99.90;;;;;;5090683;28;20043;-73
2023/01/14 02:12:36;;;;;;;14.30;9.43;;;10.00;99.90;;;;;;5068624;28;20041;-73
2023/01/14 02:15:28;;;;;;;11.13;7.75;;;10.00;99.90;;;;;;5068996;28;20052;-72
2023/01/14 02:18:11;;;;;;;13.77;9.77;;;10.00;99.90;;;;;;5051644;28;20537;-73
2023/01/14 02:20:45;;;;;;;11.32;8.23;;;10.00;99.90;;;;;;5068815;28;20044;-73
2023/01/14 02:23:51;;;;;;;12.13;8.05;;;10.00;99.90;;;;;;5068568;28;20056;-73
2023/01/14 02:26:25;;;;;;;14.20;10.07;;;9.90;99.90;;;;;;5036567;28;20057;-73
2023/01/14 02:29:30;;;;;;;13.00;9.25;;;9.90;99.90;;;;;;5050704;28;20084;-72
2023/01/14 02:32:07;;;;;;;12.50;9.65;;;9.90;99.90;;;;;;5052236;28;20044;-73
2023/01/14 02:34:51;;;;;;;13.43;10.02;;;9.90;99.90;;;;;;5069987;28;20534;-73
2023/01/14 02:37:25;;;;;;;11.80;8.77;;;10.00;99.90;;;;;;5052404;28;20052;-73
2023/01/14 02:39:59;;;;;;;11.05;8.30;;;9.90;99.90;;;;;;5037827;28;20068;-72
2023/01/14 02:45:34;;;;;;;12.52;9.98;;;10.00;99.90;;;;;;5060441;28;20052;-73
2023/01/14 02:48:04;;;;;;;13.20;9.88;;;9.90;99.90;;;;;;5068241;28;20428;-73
2023/01/14 02:50:36;;;;;;;14.05;9.40;;;9.80;99.90;;;;;;5068414;28;20044;-73
2023/01/14 02:53:12;;;;;;;16.73;10.13;;;9.70;99.90;;;;;;5067938;28;20426;-73
2023/01/14 02:55:39;;;;;;;15.52;10.35;;;9.70;99.90;;;;;;5070923;28;20055;-72
2023/01/14 02:58:35;;;;;;;13.55;9.43;;;9.80;99.90;;;;;;5055674;28;20052;-73
2023/01/14 03:01:11;;;;;;;13.55;9.80;;;9.70;99.90;;;;;;5056503;28;20048;-73
2023/01/14 03:03:51;;;;;;;13.05;9.27;;;9.70;99.90;;;;;;5035652;28;20562;-73
2023/01/14 03:06:44;;;;;;;11.98;9.00;;;9.70;99.90;;;;;;5071483;28;20048;-73
2023/01/14 03:09:46;;;;;;;13.40;8.98;;;9.70;99.90;;;;;;5071542;28;20032;-72
2023/01/14 03:12:31;;;;;;;15.98;9.25;;;9.70;99.90;;;;;;5052021;28;20032;-72
2023/01/14 03:15:12;;;;;;;9.75;7.63;;;9.70;99.90;;;;;;5061498;28;20119;-74
2023/01/14 03:17:48;;;;;;;12.50;8.77;;;9.70;99.90;;;;;;5054823;28;20078;-73
2023/01/14 03:20:27;;;;;;;12.32;9.23;;;9.80;99.90;;;;;;5071843;28;20062;-73
2023/01/14 03:23:00;;;;;;;10.40;7.10;;;9.80;99.90;;;;;;5071707;28;20055;-73
2023/01/14 03:25:30;;;;;;;14.70;10.40;;;9.80;99.90;;;;;;5071447;28;20036;-72
2023/01/14 03:28:05;;;;;;;12.23;8.88;;;9.70;99.90;;;;;;5054950;28;20390;-73
2023/01/14 03:30:37;;;;;;;18.45;10.10;;;9.70;99.90;;;;;;5054530;28;20045;-74
2023/01/14 03:33:10;;;;;;;12.02;8.98;;;9.70;99.90;;;;;;5071673;28;20044;-73
2023/01/14 03:35:41;;;;;;;15.38;10.25;;;9.60;99.90;;;;;;5071380;28;20066;-73
2023/01/14 03:38:11;;;;;;;16.85;10.82;;;9.60;99.90;;;;;;5054425;28;20048;-73
2023/01/14 03:40:41;;;;;;;14.40;11.15;;;9.60;99.90;;;;;;5071721;28;20445;-73
2023/01/14 03:43:27;;;;;;;16.77;11.70;;;9.50;99.90;;;;;;5072695;28;20067;-73
2023/01/14 03:45:56;;;;;;;16.60;13.02;;;9.50;99.90;;;;;;5073012;28;20436;-72
2023/01/14 03:48:25;;;;;;;15.30;11.07;;;9.60;99.90;;;;;;5055063;28;20081;-73
2023/01/14 03:51:46;;;;;;;17.83;12.65;;;9.60;99.90;;;;;;5054583;28;20132;-73
2023/01/14 03:54:30;;;;;;;14.88;12.63;;;9.50;99.90;;;;;;5013677;28;20094;-73
2023/01/14 03:57:24;;;;;;;20.13;12.95;;;9.40;99.90;;;;;;5013757;28;20099;-72
2023/01/14 04:00:07;;;;;;;17.65;12.55;;;9.40;99.90;;;;;;5057595;28;20536;-72
2023/01/14 04:02:42;;;;;;;15.85;10.77;;;9.50;99.90;;;;;;5038732;28;20499;-73
2023/01/14 04:05:10;;;;;;;13.93;11.50;;;9.50;99.90;;;;;;5072269;28;20550;-73
2023/01/14 04:07:38;;;;;;;13.93;10.02;;;9.40;99.90;;;;;;5071278;28;20045;-73
2023/01/14 04:10:06;;;;;;;13.20;10.18;;;9.40;99.90;;;;;;5072000;28;20036;-73
2023/01/14 04:12:33;;;;;;;12.60;10.27;;;9.40;99.90;;;;;;5072537;28;20448;-72
2023/01/14 04:17:46;;;;;;;13.50;9.50;;;9.50;99.90;;;;;;5072027;28;20080;-72
2023/01/14 04:20:14;;;;;;;11.27;8.25;;;9.50;99.90;;;;;;5072037;28;20135;-73
2023/01/14 04:22:41;;;;;;;13.32;8.63;;;9.50;99.90;;;;;;5071999;28;20045;-73
2023/01/14 04:25:09;;;;;;;12.38;8.90;;;9.40;99.90;;;;;;5071763;28;20045;-73
2023/01/14 04:27:37;;;;;;;13.65;9.02;;;9.40;99.90;;;;;;5071774;28;20041;-73
2023/01/14 04:30:05;;;;;;;14.38;8.88;;;9.40;99.90;;;;;;5053675;28;20052;-73
2023/01/14 04:32:33;;;;;;;12.57;9.68;;;9.40;99.90;;;;;;5071619;28;20494;-72
2023/01/14 04:35:01;;;;;;;11.38;8.63;;;9.40;99.90;;;;;;5071730;28;20519;-73
2023/01/14 04:37:29;;;;;;;14.00;9.77;;;9.40;99.90;;;;;;5071423;28;20044;-73
2023/01/14 04:39:57;;;;;;;10.88;7.82;;;9.50;99.90;;;;;;5070830;28;20052;-73
2023/01/14 04:42:27;;;;;;;12.75;9.57;;;9.50;99.90;;;;;;5071850;28;20117;-73
2023/01/14 04:45:03;;;;;;;11.63;7.75;;;9.50;99.90;;;;;;5053893;28;20499;-72
2023/01/14 04:47:31;;;;;;;11.45;8.35;;;9.60;99.90;;;;;;5071264;28;20126;-73
2023/01/14 04:50:30;;;;;;;10.93;7.82;;;9.60;99.90;;;;;;5069908;28;20068;-72
2023/01/14 04:52:46;;;;;;;11.63;7.60;;;9.60;99.90;;;;;;5071096;28;20044;-73
2023/01/14 04:55:14;;;;;;;13.15;8.98;;;9.60;99.90;;;;;;5070027;28;20040;-73
2023/01/14 04:57:42;;;;;;;9.30;6.85;;;9.60;99.90;;;;;;5070118;28;20127;-73
2023/01/14 05:00:10;;;;;;;13.75;9.40;;;9.60;99.90;;;;;;5071291;28;20044;-72
2023/01/14 05:02:38;;;;;;;14.15;8.40;;;9.70;99.90;;;;;;5071154;28;20151;-72
2023/01/14 05:05:05;;;;;;;10.40;7.18;;;9.60;99.90;;;;;;5071016;28;20131;-73
2023/01/14 05:07:33;;;;;;;11.88;7.68;;;9.60;99.90;;;;;;5071194;28;20040;-73
2023/01/14 05:10:01;;;;;;;9.80;6.40;;;9.70;99.90;;;;;;5069894;28;20128;-73
2023/01/14 05:12:28;;;;;;;11.60;7.28;;;9.70;99.90;;;;;;5069954;28;20437;-73
2023/01/14 05:14:56;;;;;;;12.73;7.65;;;9.60;99.90;;;;;;5069289;28;20041;-73
2023/01/14 05:17:24;;;;;;;11.90;7.45;;;9.60;99.90;;;;;;5069140;28;20064;-73
2023/01/14 05:19:51;;;;;;;11.55;7.55;;;9.60;99.90;;;;;;5069465;28;20102;-73
2023/01/14 05:22:19;;;;;;;11.85;7.63;;;9.60;99.90;;;;;;5070964;28;20821;-73
2023/01/14 05:24:46;;;;;;;13.20;8.02;;;9.60;99.90;;;;;;5070721;28;20048;-73
2023/01/14 05:27:14;;;;;;;8.95;7.03;;;9.60;99.90;;;;;;5069425;28;20040;-73
2023/01/14 05:29:41;;;;;;;10.82;7.88;;;9.60;99.90;;;;;;5069928;28;20078;-73
2023/01/14 05:32:12;;;;;;;11.88;7.50;;;9.60;99.90;;;;;;5069450;28;20043;-72
2023/01/14 05:34:39;;;;;;;9.68;6.53;;;9.50;99.90;;;;;;5070674;28;20041;-73
2023/01/14 05:37:07;;;;;;;12.68;8.70;;;9.60;99.90;;;;;;5052434;28;20040;-72
2023/01/14 05:39:34;;;;;;;11.95;9.20;;;9.50;99.90;;;;;;5068628;28;20052;-73
2023/01/14 05:47:33;;;;;;;10.82;7.82;;;9.50;99.90;;;;;;5068259;28;20037;-72
2023/01/14 05:50:01;;;;;;;13.75;8.90;;;9.50;99.90;;;;;;5070215;28;20051;-73
2023/01/14 05:52:28;;;;;;;10.45;7.93;;;9.40;99.90;;;;;;5070278;28;20133;-72
2023/01/14 05:54:56;;;;;;;9.77;7.63;;;9.40;99.90;;;;;;5070024;28;20425;-73
2023/01/14 05:57:23;;;;;;;9.70;8.15;;;9.40;99.90;;;;;;5069990;28;20059;-73
2023/01/14 05:59:51;;;;;;;12.57;9.13;;;9.40;99.90;;;;;;5070274;28;20052;-72
2023/01/14 06:07:50;;;;;;;12.48;8.43;;;9.40;99.90;;;;;;5068968;28;20056;-72
2023/01/14 06:10:18;;;;;;;11.85;9.60;;;9.40;99.90;;;;;;5068661;28;20044;-73
2023/01/14 06:12:57;;;;;;;14.15;9.60;;;9.40;99.90;;;;;;5068793;28;20048;-73
2023/01/14 06:15:32;;;;;;;15.27;11.20;;;9.50;99.90;;;;;;5069754;28;20135;-72
2023/01/14 06:18:09;;;;;;;16.25;11.20;;;9.50;99.90;;;;;;5052226;28;20061;-73
2023/01/14 06:20:37;;;;;;;16.50;11.48;;;9.50;99.90;;;;;;5070154;28;20052;-73
2023/01/14 06:23:07;;;;;;;18.77;12.75;;;9.50;99.90;;;;;;5069700;28;20045;-73
2023/01/14 06:25:35;;;;;;;17.85;13.38;;;9.50;99.90;;;;;;5068160;28;20434;-73
2023/01/14 06:28:02;;;;;;;14.95;11.35;;;9.70;99.90;;;;;;5069931;28;20047;-73
2023/01/14 06:30:30;;;;;;;20.70;12.45;;;10.00;99.90;;;;;;5067719;28;20045;-72
2023/01/14 06:32:58;;;;;;;19.75;12.52;;;10.30;99.90;;;;;;5068441;28;20394;-72
2023/01/14 06:35:25;;;;;;;19.48;13.27;;;10.60;99.90;;;;;;5068232;28;20123;-72
2023/01/14 06:37:53;;;;;;;20.90;14.35;;;11.00;99.90;;;;;;5069806;28;20044;-72
2023/01/14 06:40:20;;;;;;;23.10;12.82;;;11.50;99.90;;;;;;5069620;28;20479;-73
2023/01/14 06:42:53;;;;;;;20.67;14.35;;;12.10;99.90;;;;;;5069806;28;20040;-73
2023/01/14 06:45:22;;;;;;;18.88;13.75;;;12.60;99.90;;;;;;5067960;28;20056;-72
2023/01/14 06:47:51;;;;;;;19.45;13.30;;;13.10;99.90;;;;;;5068371;28;20044;-73
2023/01/14 06:50:18;;;;;;;14.82;11.10;;;13.60;99.90;;;;;;5051590;28;20151;-73
2023/01/14 06:52:48;;;;;;;17.48;12.43;;;14.10;99.90;;;;;;5051430;28;20029;-73
2023/01/14 06:55:16;;;;;;;20.48;12.55;;;14.50;99.90;;;;;;5051784;28;20570;-72
2023/01/14 06:57:44;;;;;;;18.52;12.88;;;14.70;99.90;;;;;;5034973;28;20151;-73
2023/01/14 07:00:14;;;;;;;22.20;16.45;;;14.90;99.90;;;;;;5068010;28;20441;-73
2023/01/14 07:02:42;;;;;;;24.58;18.05;;;15.10;99.90;;;;;;5069629;28;20048;-72
2023/01/14 07:05:09;;;;;;;30.02;18.75;;;15.50;99.90;;;;;;5068001;28;20055;-72
2023/01/14 07:07:36;;;;;;;30.10;19.98;;;15.90;99.90;;;;;;5068086;28;20036;-73
2023/01/14 07:10:04;;;;;;;20.35;16.10;;;16.40;99.90;;;;;;5069305;28;20346;-73
2023/01/14 07:12:32;;;;;;;20.90;14.68;;;16.90;99.90;;;;;;5068056;28;20080;-72
2023/01/14 07:14:59;;;;;;;18.45;12.70;;;17.50;99.90;;;;;;5068149;28;20132;-72
2023/01/14 07:17:27;;;;;;;14.50;11.18;;;18.00;99.90;;;;;;5069083;28;20105;-72
2023/01/14 07:19:54;;;;;;;17.55;11.43;;;18.50;99.90;;;;;;5067470;28;20037;-72
2023/01/14 07:22:21;;;;;;;20.80;12.23;;;19.00;99.90;;;;;;5067559;28;20049;-72
2023/01/14 07:24:49;;;;;;;15.57;11.75;;;19.40;99.90;;;;;;5069295;28;20072;-72
2023/01/14 07:27:16;;;;;;;16.88;12.27;;;19.80;99.90;;;;;;5051163;28;20067;-74
2023/01/14 07:29:44;;;;;;;15.20;11.15;;;20.30;99.70;;;;;;5067851;28;20121;-71
2023/01/14 07:32:11;;;;;;;14.07;10.48;;;20.90;98.80;;;;;;5068026;28;20051;-73
2023/01/14 07:34:39;;;;;;;12.88;10.20;;;21.20;98.20;;;;;;5069171;28;20063;-72
2023/01/14 07:37:06;;;;;;;12.93;9.77;;;21.60;97.80;;;;;;5051493;28;20437;-73
2023/01/14 07:39:34;;;;;;;12.95;9.77;;;21.80;97.40;;;;;;5067600;28;20472;-73
2023/01/14 07:42:01;;;;;;;12.65;8.88;;;22.00;97.10;;;;;;5070711;28;20820;-72
2023/01/14 07:44:31;;;;;;;14.15;9.68;;;22.00;96.90;;;;;;5072766;28;20040;-72
2023/01/14 07:46:58;;;;;;;16.27;11.18;;;21.90;96.90;;;;;;5072630;28;20142;-72
2023/01/14 07:49:26;;;;;;;13.95;9.23;;;21.80;97.00;;;;;;5072322;28;20090;-73
2023/01/14 07:51:54;;;;;;;14.25;10.13;;;21.60;97.50;;;;;;5054679;28;20509;-73
2023/01/14 07:54:22;;;;;;;10.60;8.35;;;21.30;97.40;;;;;;5072124;28;20057;-72
2023/01/14 07:56:49;;;;;;;12.10;9.50;;;20.90;97.90;;;;;;5072599;28;20127;-73
2023/01/14 07:59:17;;;;;;;13.88;10.48;;;20.70;98.50;;;;;;5054670;28;20052;-74
2023/01/14 08:01:44;;;;;;;11.77;9.68;;;20.40;98.70;;;;;;5072352;28;20040;-73
2023/01/14 08:04:12;;;;;;;14.30;10.63;;;20.20;99.30;;;;;;5072242;28;20048;-72
2023/01/14 08:06:40;;;;;;;20.95;11.48;;;20.00;99.70;;;;;;5072210;28;20068;-72
2023/01/14 08:09:07;;;;;;;16.60;10.85;;;19.80;99.90;;;;;;5070655;28;20045;-72
2023/01/14 08:11:36;;;;;;;13.07;9.32;;;19.60;99.90;;;;;;5071873;28;20083;-73
2023/01/14 08:14:03;;;;;;;10.73;8.13;;;19.50;99.90;;;;;;5072245;28;20933;-72
2023/01/14 08:16:31;;;;;;;11.13;7.75;;;19.40;99.90;;;;;;5070628;28;20131;-72
2023/01/14 08:18:59;;;;;;;12.27;8.00;;;19.30;99.90;;;;;;5070986;28;20052;-73
2023/01/14 08:21:26;;;;;;;11.68;8.48;;;19.10;99.90;;;;;;5070761;28;20080;-72
2023/01/14 08:23:53;;;;;;;12.32;8.30;;;19.00;99.90;;;;;;5070806;28;20062;-73
2023/01/14 08:26:21;;;;;;;11.75;8.25;;;19.00;99.90;;;;;;5070993;28;20056;-72
2023/01/14 08:28:48;;;;;;;13.48;8.38;;;19.00;99.90;;;;;;5070572;28;20486;-72
2023/01/14 08:31:17;;;;;;;10.88;8.88;;;19.00;99.90;;;;;;5070476;28;20075;-73
2023/01/14 08:33:45;;;;;;;13.13;8.13;;;18.90;99.90;;;;;;5070523;28;20044;-72
2023/01/14 08:36:15;;;;;;;14.25;8.68;;;18.70;99.90;;;;;;5071704;28;20494;-73
2023/01/14 08:38:45;;;;;;;12.82;8.75;;;18.60;99.90;;;;;;5071697;28;20505;-72
2023/01/14 08:41:14;;;;;;;11.38;8.82;;;18.40;99.90;;;;;;5071756;28;20048;-72
2023/01/14 08:43:43;;;;;;;13.25;9.85;;;18.20;99.90;;;;;;5070607;28;20126;-72
2023/01/14 08:46:10;;;;;;;13.90;9.30;;;18.00;99.90;;;;;;5071256;28;20114;-72
2023/01/14 08:48:38;;;;;;;14.88;10.93;;;17.80;99.90;;;;;;5071736;28;20386;-72
2023/01/14 08:51:08;;;;;;;16.60;10.77;;;17.60;99.90;;;;;;5069738;28;20059;-72
2023/01/14 08:53:37;;;;;;;13.88;9.60;;;17.40;99.90;;;;;;5071421;28;20101;-72
2023/01/14 08:56:06;;;;;;;15.05;10.27;;;17.30;99.90;;;;;;5070170;28;20098;-71
2023/01/14 08:58:36;;;;;;;18.80;10.95;;;17.20;99.90;;;;;;5053599;28;20054;-72
2023/01/14 09:01:07;;;;;;;15.93;11.18;;;17.20;99.90;;;;;;5069960;28;20080;-73
2023/01/14 09:03:36;;;;;;;14.18;10.55;;;17.20;99.90;;;;;;5070242;28;20122;-72
2023/01/14 09:06:07;;;;;;;12.82;10.45;;;17.20;99.90;;;;;;5071088;28;20042;-72
2023/01/14 09:17:07;;;;;;;14.80;9.70;;;17.60;99.90;;;;;;5070910;28;20054;-73
2023/01/14 09:19:53;;;;;;;11.85;9.50;;;17.70;99.90;;;;;;5070699;28;20055;-74
2023/01/14 09:22:26;;;;;;;15.43;9.75;;;17.90;99.90;;;;;;5070878;28;20052;-73
2023/01/14 09:24:54;;;;;;;11.38;8.18;;;18.10;99.90;;;;;;5070841;28;20094;-72
2023/01/14 09:27:23;;;;;;;12.90;8.15;;;18.10;99.90;;;;;;5069308;28;20048;-72
2023/01/14 09:29:50;;;;;;;14.20;8.40;;;18.20;99.90;;;;;;5069620;28;20043;-71
2023/01/14 09:32:18;;;;;;;8.60;6.78;;;18.20;99.90;;;;;;5052456;28;20040;-71
2023/01/14 09:34:49;;;;;;;9.52;7.63;;;18.30;99.90;;;;;;5070638;28;20043;-72
2023/01/14 09:37:19;;;;;;;10.18;7.00;;;18.40;99.90;;;;;;5052281;28;20106;-74
2023/01/14 09:39:47;;;;;;;8.45;6.18;;;18.40;99.90;;;;;;5070464;28;20048;-73
2023/01/14 09:42:24;;;;;;;8.55;7.30;;;18.40;99.90;;;;;;5070625;28;20569;-72
2023/01/14 09:45:12;;;;;;;10.60;7.20;;;18.60;99.90;;;;;;5069362;28;20497;-72
2023/01/14 09:47:42;;;;;;;8.88;6.97;;;18.60;99.90;;;;;;5068982;28;20052;-71
2023/01/14 09:50:20;;;;;;;8.65;5.57;;;18.80;99.90;;;;;;5069237;28;20048;-72
2023/01/14 09:53:03;;;;;;;8.93;6.45;;;18.90;99.90;;;;;;5051917;28;20044;-72
2023/01/14 09:55:43;;;;;;;10.32;6.47;;;19.10;99.90;;;;;;5068907;28;20052;-74
2023/01/14 09:59:06;;;;;;;9.55;5.82;;;19.20;99.90;;;;;;5048987;28;20079;-72
2023/01/14 10:01:40;;;;;;;7.53;5.97;;;19.30;99.90;;;;;;5064823;28;20045;-72
2023/01/14 10:04:30;;;;;;;7.97;5.13;;;19.50;99.90;;;;;;5068260;28;20048;-73
2023/01/14 10:07:00;;;;;;;8.68;5.75;;;19.60;99.90;;;;;;5068195;28;20047;-72
2023/01/14 10:09:54;;;;;;;7.18;5.35;;;19.70;99.90;;;;;;5069298;28;20124;-74
2023/01/14 10:12:44;;;;;;;7.22;5.05;;;19.90;99.90;;;;;;5048001;28;20071;-74
2023/01/14 10:15:29;;;;;;;6.93;5.13;;;20.00;99.90;;;;;;5048086;28;20048;-73
2023/01/14 10:18:26;;;;;;;6.45;4.65;;;20.00;99.90;;;;;;5046105;28;20056;-73
2023/01/14 10:21:12;;;;;;;8.60;5.03;;;20.00;99.90;;;;;;5037117;28;20052;-73
2023/01/14 10:23:41;;;;;;;8.63;4.93;;;20.10;99.90;;;;;;5069401;28;20048;-72
2023/01/14 10:26:13;;;;;;;7.63;5.32;;;20.10;99.90;;;;;;5051618;28;20373;-80
2023/01/14 10:28:53;;;;;;;6.63;5.13;;;20.10;99.90;;;;;;5068005;28;20056;-72
2023/01/14 10:31:35;;;;;;;6.93;4.25;;;20.10;99.90;;;;;;5067477;28;20126;-72
2023/01/14 10:34:03;;;;;;;8.10;4.80;;;19.90;99.90;;;;;;5067990;28;20113;-73
2023/01/14 10:36:31;;;;;;;5.90;4.38;;;19.80;99.90;;;;;;5067487;28;20063;-73
2023/01/14 10:39:01;;;;;;;6.93;3.95;;;19.80;99.90;;;;;;5051333;28;20510;-74
2023/01/14 10:44:24;;;;;;;6.85;4.57;;;19.80;99.90;;;;;;5067760;28;20036;-73
2023/01/14 10:46:57;;;;;;;7.45;4.30;;;19.80;99.90;;;;;;5069257;28;20439;-73
2023/01/14 10:49:40;;;;;;;7.70;4.80;;;19.70;99.90;;;;;;5067643;28;20044;-73
2023/01/14 10:52:20;;;;;;;9.57;5.15;;;19.50;99.90;;;;;;5068065;28;20517;-73
2023/01/14 10:55:00;;;;;;;7.20;3.55;;;19.30;99.90;;;;;;5069227;28;20049;-72
2023/01/14 10:57:34;;;;;;;4.60;3.25;;;19.20;99.90;;;;;;5067445;28;20043;-72
2023/01/14 11:00:06;;;;;;;6.00;3.95;;;19.20;99.90;;;;;;5067895;28;20109;-74
2023/01/14 11:02:39;;;;;;;7.55;4.03;;;19.30;99.90;;;;;;5067671;28;20059;-73
2023/01/14 11:05:29;;;;;;;7.25;4.10;;;19.30;99.90;;;;;;5068965;28;20048;-72
2023/01/14 11:08:02;;;;;;;5.35;3.80;;;19.40;99.90;;;;;;5067537;28;20399;-73
2023/01/14 11:10:31;;;;;;;6.43;3.60;;;19.50;99.90;;;;;;5067527;28;20082;-73
2023/01/14 11:13:36;;;;;;;28.55;18.65;;;19.50;99.90;;;;;;5034777;28;20482;-72
2023/01/14 11:16:05;;;;;;;15.43;10.13;;;19.50;99.90;;;;;;5012138;28;20041;-72
2023/01/14 11:18:33;;;;;;;8.07;5.82;;;19.50;99.90;;;;;;5045308;28;20049;-73
2023/01/14 11:21:06;;;;;;;6.95;4.75;;;19.60;99.90;;;;;;5054704;28;20053;-73
2023/01/14 11:23:39;;;;;;;4.38;3.55;;;19.50;99.90;;;;;;5054635;28;20079;-72
2023/01/14 11:26:31;;;;;;;7.13;3.72;;;19.50;99.90;;;;;;5071229;28;20143;-73
2023/01/14 11:29:15;;;;;;;5.90;4.15;;;19.40;99.90;;;;;;5071201;28;20526;-74
2023/01/14 11:31:44;;;;;;;4.03;2.97;;;19.30;99.90;;;;;;5071265;28;20052;-72
2023/01/14 11:34:21;;;;;;;5.07;3.70;;;19.20;99.90;;;;;;5071081;28;20449;-73
2023/01/14 11:36:49;;;;;;;4.45;3.45;;;19.20;99.90;;;;;;5037477;28;20490;-73
2023/01/14 11:39:20;;;;;;;6.63;3.08;;;19.00;99.90;;;;;;5072051;28;20367;-81
2023/01/14 11:41:48;;;;;;;7.50;5.00;;;18.70;99.90;;;;;;5071484;28;20528;-74
2023/01/14 11:44:19;;;;;;;6.32;4.57;;;18.40;99.90;;;;;;5104411;28;20559;-72
2023/01/14 11:47:22;;;;;;;6.93;4.63;;;17.90;99.90;;;;;;5070354;28;20511;-74
2023/01/14 11:50:12;;;;;;;8.90;5.57;;;17.60;99.90;;;;;;5054950;28;20562;-71
2023/01/14 11:52:39;;;;;;;9.02;5.40;;;17.10;99.90;;;;;;5051370;28;20037;-73
2023/01/14 11:55:16;;;;;;;7.05;5.13;;;16.80;99.90;;;;;;5051684;28;20041;-72
2023/01/14 11:57:44;;;;;;;7.65;4.28;;;16.50;99.90;;;;;;5060500;28;20037;-74
2023/01/14 12:00:12;;;;;;;21.48;5.40;;;16.20;99.90;;;;;;5072443;28;20036;-70
2023/01/14 12:02:46;;;;;;;6.70;4.20;;;16.10;99.90;;;;;;5071566;28;20048;-73
2023/01/14 12:05:21;;;;;;;8.70;5.35;;;15.90;99.90;;;;;;5071261;28;20173;-71
2023/01/14 12:07:55;;;;;;;17.20;9.48;;;15.80;99.90;;;;;;5072391;28;20076;-72
2023/01/14 12:10:45;;;;;;;17.17;9.65;;;15.70;99.90;;;;;;5054732;28;20094;-71
2023/01/14 12:19:41;;;;;;;13.30;6.63;;;15.70;99.90;;;;;;5052386;28;20450;-71
2023/01/14 12:22:24;;;;;;;5.82;4.32;;;15.90;99.90;;;;;;5069622;28;20056;-71
2023/01/14 12:25:08;;;;;;;9.02;4.90;;;16.00;99.90;;;;;;5072124;28;20044;-72
2023/01/14 12:28:00;;;;;;;10.27;6.53;;;15.90;99.90;;;;;;5054398;28;20418;-70
2023/01/14 12:30:48;;;;;;;15.88;9.82;;;15.90;99.90;;;;;;5055022;28;20064;-72
2023/01/14 12:33:23;;;;;;;7.90;6.20;;;15.70;99.90;;;;;;5071817;28;20084;-71
2023/01/14 12:36:03;;;;;;;10.20;6.95;;;15.60;99.90;;;;;;5070426;28;20063;-72
2023/01/14 12:47:45;;;;;;;7.90;4.45;;;15.00;99.90;;;;;;5071844;28;20386;-71
2023/01/14 12:50:15;;;;;;;4.70;2.83;;;15.10;99.90;;;;;;5070374;28;20066;-71
2023/01/14 12:52:52;;;;;;;4.78;3.33;;;15.00;99.90;;;;;;5053435;28;20049;-71
2023/01/14 12:55:32;;;;;;;6.63;2.83;;;14.90;99.90;;;;;;5053533;28;20154;-71
2023/01/14 12:58:03;;;;;;;4.40;2.55;;;14.80;99.90;;;;;;5070128;28;20083;-71
2023/01/14 13:00:36;;;;;;;3.75;2.75;;;14.70;99.90;;;;;;5053578;28;20090;-72
2023/01/14 13:03:08;;;;;;;4.57;2.80;;;14.60;99.90;;;;;;5053654;28;20174;-71
2023/01/14 13:05:42;;;;;;;5.15;3.10;;;14.50;99.90;;;;;;5070008;28;20079;-71
2023/01/14 13:08:23;;;;;;;6.07;3.58;;;14.50;99.90;;;;;;5070188;28;20044;-74
2023/01/14 13:11:05;;;;;;;6.45;4.50;;;14.40;99.90;;;;;;5070023;28;20453;-70
2023/01/14 13:13:34;;;;;;;6.43;4.30;;;14.30;99.90;;;;;;5070964;28;20494;-71
2023/01/14 13:16:03;;;;;;;4.72;3.22;;;14.30;99.90;;;;;;5069662;28;20033;-71
2023/01/14 13:18:34;;;;;;;4.63;2.65;;;14.20;99.90;;;;;;5069422;28;20048;-72
2023/01/14 13:21:07;;;;;;;5.43;3.10;;;14.10;99.90;;;;;;5053282;28;20106;-72
2023/01/14 13:23:43;;;;;;;5.07;2.90;;;14.10;99.90;;;;;;5069409;28;20048;-73
2023/01/14 13:26:17;;;;;;;4.70;3.25;;;14.20;99.90;;;;;;5037146;28;20056;-71
2023/01/14 13:29:15;;;;;;;7.95;3.90;;;14.20;99.90;;;;;;5069152;28;20052;-71
2023/01/14 13:31:45;;;;;;;4.70;3.60;;;14.30;99.90;;;;;;5069684;28;20373;-71
2023/01/14 13:34:22;;;;;;;6.93;3.70;;;14.50;99.90;;;;;;5069877;28;20056;-70
2023/01/14 13:36:59;;;;;;;4.72;3.15;;;14.70;99.90;;;;;;5053433;28;20037;-72
2023/01/14 13:39:29;;;;;;;7.20;4.03;;;14.90;99.90;;;;;;5052831;28;20052;-71
2023/01/14 13:41:59;;;;;;;9.80;5.32;;;15.00;99.90;;;;;;5069307;28;20048;-72
2023/01/14 13:44:27;;;;;;;6.85;4.53;;;14.80;99.90;;;;;;5070003;28;20049;-72
2023/01/14 13:47:26;;;;;;;4.28;2.90;;;14.80;99.90;;;;;;5069094;28;20495;-72
2023/01/14 13:50:08;;;;;;;3.35;2.10;;;14.70;99.90;;;;;;5062621;28;20570;-72
2023/01/14 13:52:54;;;;;;;4.30;2.13;;;14.70;99.90;;;;;;5050443;28;20051;-73
2023/01/14 13:55:27;;;;;;;2.40;1.90;;;14.60;99.90;;;;;;5050377;28;20064;-72